sensor_id;sensor_type;location;lat;lon;timestamp;P1;durP1;ratioP1;P2;durP2;ratioP2
72427;SDS011;60419;48.880;18.036;2023-06-22T00:01:38;9.32;;;5.32;;
72427;SDS011;60419;48.880;18.036;2023-06-22T00:04:24;12.02;;;5.95;;
72427;SDS011;60419;48.880;18.036;2023-06-22T00:07:10;12.32;;;5.80;;
72427;SDS011;60419;48.880;18.036;2023-06-22T00:09:55;11.65;;;5.72;;
72427;SDS011;60419;48.880;18.036;2023-06-22T00:12:41;9.70;;;5.47;;
72427;SDS011;60419;48.880;18.036;2023-06-22T00:15:26;9.15;;;5.50;;
72427;SDS011;60419;48.880;18.036;2023-06-22T00:18:12;13.25;;;5.82;;
72427;SDS011;60419;48.880;18.036;2023-06-22T00:20:59;10.93;;;5.95;;
72427;SDS011;60419;48.880;18.036;2023-06-22T00:23:45;10.65;;;5.45;;
72427;SDS011;60419;48.880;18.036;2023-06-22T00:26:30;13.18;;;6.20;;
72427;SDS011;60419;48.880;18.036;2023-06-22T00:29:15;11.55;;;5.68;;
72427;SDS011;60419;48.880;18.036;2023-06-22T00:32:01;16.58;;;6.68;;
72427;SDS011;60419;48.880;18.036;2023-06-22T00:34:47;11.85;;;6.35;;
72427;SDS011;60419;48.880;18.036;2023-06-22T00:37:33;11.43;;;6.22;;
72427;SDS011;60419;48.880;18.036;2023-06-22T00:40:18;12.18;;;6.00;;
72427;SDS011;60419;48.880;18.036;2023-06-22T00:43:06;10.95;;;5.68;;
72427;SDS011;60419;48.880;18.036;2023-06-22T00:45:52;10.90;;;6.53;;
72427;SDS011;60419;48.880;18.036;2023-06-22T00:48:37;11.50;;;7.03;;
72427;SDS011;60419;48.880;18.036;2023-06-22T00:51:25;13.15;;;7.10;;
72427;SDS011;60419;48.880;18.036;2023-06-22T00:54:11;16.65;;;7.80;;
72427;SDS011;60419;48.880;18.036;2023-06-22T00:56:58;18.30;;;7.22;;
72427;SDS011;60419;48.880;18.036;2023-06-22T00:59:47;15.40;;;6.72;;
72427;SDS011;60419;48.880;18.036;2023-06-22T01:02:33;12.85;;;7.28;;
72427;SDS011;60419;48.880;18.036;2023-06-22T01:05:19;12.82;;;6.45;;
72427;SDS011;60419;48.880;18.036;2023-06-22T01:11:37;13.30;;;6.85;;
72427;SDS011;60419;48.880;18.036;2023-06-22T01:17:18;14.20;;;8.05;;
72427;SDS011;60419;48.880;18.036;2023-06-22T01:20:05;13.48;;;7.78;;
72427;SDS011;60419;48.880;18.036;2023-06-22T01:26:18;15.25;;;7.50;;
72427;SDS011;60419;48.880;18.036;2023-06-22T01:29:13;12.85;;;7.70;;
72427;SDS011;60419;48.880;18.036;2023-06-22T01:32:00;17.10;;;7.72;;
72427;SDS011;60419;48.880;18.036;2023-06-22T01:34:47;15.38;;;7.75;;
72427;SDS011;60419;48.880;18.036;2023-06-22T01:37:34;16.35;;;8.55;;
72427;SDS011;60419;48.880;18.036;2023-06-22T01:40:21;14.55;;;8.25;;
72427;SDS011;60419;48.880;18.036;2023-06-22T01:43:08;17.05;;;8.50;;
72427;SDS011;60419;48.880;18.036;2023-06-22T01:45:54;15.70;;;8.88;;
72427;SDS011;60419;48.880;18.036;2023-06-22T01:48:41;16.20;;;9.13;;
72427;SDS011;60419;48.880;18.036;2023-06-22T01:51:26;15.55;;;8.85;;
72427;SDS011;60419;48.880;18.036;2023-06-22T01:54:12;16.45;;;9.07;;
72427;SDS011;60419;48.880;18.036;2023-06-22T01:56:58;14.50;;;9.02;;
72427;SDS011;60419;48.880;18.036;2023-06-22T01:59:48;16.08;;;9.05;;
72427;SDS011;60419;48.880;18.036;2023-06-22T02:03:07;15.00;;;9.57;;
72427;SDS011;60419;48.880;18.036;2023-06-22T02:06:01;14.60;;;9.27;;
72427;SDS011;60419;48.880;18.036;2023-06-22T02:08:49;18.50;;;9.98;;
72427;SDS011;60419;48.880;18.036;2023-06-22T02:11:40;16.95;;;11.40;;
72427;SDS011;60419;48.880;18.036;2023-06-22T02:14:27;15.80;;;11.43;;
72427;SDS011;60419;48.880;18.036;2023-06-22T02:17:14;20.15;;;12.65;;
72427;SDS011;60419;48.880;18.036;2023-06-22T02:20:00;19.90;;;14.48;;
72427;SDS011;60419;48.880;18.036;2023-06-22T02:22:48;21.33;;;15.00;;
72427;SDS011;60419;48.880;18.036;2023-06-22T02:25:34;23.33;;;14.70;;
72427;SDS011;60419;48.880;18.036;2023-06-22T02:28:20;27.02;;;16.02;;
72427;SDS011;60419;48.880;18.036;2023-06-22T02:31:05;25.00;;;15.93;;
72427;SDS011;60419;48.880;18.036;2023-06-22T02:33:51;24.85;;;15.55;;
72427;SDS011;60419;48.880;18.036;2023-06-22T02:36:36;26.83;;;16.05;;
72427;SDS011;60419;48.880;18.036;2023-06-22T02:39:25;27.17;;;16.80;;
72427;SDS011;60419;48.880;18.036;2023-06-22T02:42:10;29.10;;;17.85;;
72427;SDS011;60419;48.880;18.036;2023-06-22T02:44:56;24.25;;;17.35;;
72427;SDS011;60419;48.880;18.036;2023-06-22T02:47:41;28.00;;;17.20;;
72427;SDS011;60419;48.880;18.036;2023-06-22T02:50:27;25.40;;;16.55;;
72427;SDS011;60419;48.880;18.036;2023-06-22T02:53:12;26.75;;;15.60;;
72427;SDS011;60419;48.880;18.036;2023-06-22T02:55:57;27.65;;;16.85;;
72427;SDS011;60419;48.880;18.036;2023-06-22T02:58:43;24.23;;;16.50;;
72427;SDS011;60419;48.880;18.036;2023-06-22T03:01:28;26.30;;;15.98;;
72427;SDS011;60419;48.880;18.036;2023-06-22T03:04:15;25.83;;;15.13;;
72427;SDS011;60419;48.880;18.036;2023-06-22T03:07:01;30.27;;;17.92;;
72427;SDS011;60419;48.880;18.036;2023-06-22T03:09:46;28.50;;;18.38;;
72427;SDS011;60419;48.880;18.036;2023-06-22T03:12:31;30.98;;;17.70;;
72427;SDS011;60419;48.880;18.036;2023-06-22T03:15:17;29.17;;;18.58;;
72427;SDS011;60419;48.880;18.036;2023-06-22T03:18:02;30.33;;;18.83;;
72427;SDS011;60419;48.880;18.036;2023-06-22T03:20:48;23.70;;;13.85;;
72427;SDS011;60419;48.880;18.036;2023-06-22T03:23:33;16.27;;;11.20;;
72427;SDS011;60419;48.880;18.036;2023-06-22T03:26:19;21.42;;;14.38;;
72427;SDS011;60419;48.880;18.036;2023-06-22T03:29:04;20.92;;;11.50;;
72427;SDS011;60419;48.880;18.036;2023-06-22T03:31:50;13.20;;;9.40;;
72427;SDS011;60419;48.880;18.036;2023-06-22T03:34:35;17.45;;;11.32;;
72427;SDS011;60419;48.880;18.036;2023-06-22T03:37:21;22.80;;;16.02;;
72427;SDS011;60419;48.880;18.036;2023-06-22T03:40:06;24.10;;;15.68;;
72427;SDS011;60419;48.880;18.036;2023-06-22T03:42:52;15.38;;;9.40;;
72427;SDS011;60419;48.880;18.036;2023-06-22T03:45:37;20.17;;;14.00;;
72427;SDS011;60419;48.880;18.036;2023-06-22T03:48:23;21.05;;;12.82;;
72427;SDS011;60419;48.880;18.036;2023-06-22T03:51:08;17.40;;;11.20;;
72427;SDS011;60419;48.880;18.036;2023-06-22T03:53:53;22.73;;;14.82;;
72427;SDS011;60419;48.880;18.036;2023-06-22T03:56:39;13.55;;;8.82;;
72427;SDS011;60419;48.880;18.036;2023-06-22T03:59:24;15.15;;;8.75;;
72427;SDS011;60419;48.880;18.036;2023-06-22T04:02:10;20.52;;;12.88;;
72427;SDS011;60419;48.880;18.036;2023-06-22T04:04:55;22.83;;;14.88;;
72427;SDS011;60419;48.880;18.036;2023-06-22T04:07:41;19.48;;;11.32;;
72427;SDS011;60419;48.880;18.036;2023-06-22T04:10:26;26.17;;;15.60;;
72427;SDS011;60419;48.880;18.036;2023-06-22T04:13:12;23.92;;;15.25;;
72427;SDS011;60419;48.880;18.036;2023-06-22T04:15:57;24.25;;;15.10;;
72427;SDS011;60419;48.880;18.036;2023-06-22T04:18:43;22.08;;;13.52;;
72427;SDS011;60419;48.880;18.036;2023-06-22T04:21:28;24.58;;;14.73;;
72427;SDS011;60419;48.880;18.036;2023-06-22T04:24:14;24.60;;;15.50;;
72427;SDS011;60419;48.880;18.036;2023-06-22T04:26:59;23.45;;;14.55;;
72427;SDS011;60419;48.880;18.036;2023-06-22T04:29:47;18.50;;;12.70;;
72427;SDS011;60419;48.880;18.036;2023-06-22T04:32:34;17.10;;;10.35;;
72427;SDS011;60419;48.880;18.036;2023-06-22T04:35:25;19.08;;;10.70;;
72427;SDS011;60419;48.880;18.036;2023-06-22T04:38:12;11.30;;;7.70;;
72427;SDS011;60419;48.880;18.036;2023-06-22T04:40:58;11.38;;;7.57;;
72427;SDS011;60419;48.880;18.036;2023-06-22T04:43:46;11.25;;;7.82;;
72427;SDS011;60419;48.880;18.036;2023-06-22T04:46:39;15.27;;;9.10;;
72427;SDS011;60419;48.880;18.036;2023-06-22T04:49:26;14.43;;;9.52;;
72427;SDS011;60419;48.880;18.036;2023-06-22T04:52:18;15.02;;;9.45;;
72427;SDS011;60419;48.880;18.036;2023-06-22T04:55:05;14.98;;;9.40;;
72427;SDS011;60419;48.880;18.036;2023-06-22T04:57:51;14.27;;;7.80;;
72427;SDS011;60419;48.880;18.036;2023-06-22T05:00:36;11.93;;;6.75;;
72427;SDS011;60419;48.880;18.036;2023-06-22T05:03:22;9.43;;;6.30;;
72427;SDS011;60419;48.880;18.036;2023-06-22T05:06:07;15.20;;;9.73;;
72427;SDS011;60419;48.880;18.036;2023-06-22T05:08:53;15.25;;;9.05;;
72427;SDS011;60419;48.880;18.036;2023-06-22T05:11:43;17.13;;;10.97;;
72427;SDS011;60419;48.880;18.036;2023-06-22T05:14:29;13.48;;;9.32;;
72427;SDS011;60419;48.880;18.036;2023-06-22T05:17:15;20.13;;;11.98;;
72427;SDS011;60419;48.880;18.036;2023-06-22T05:20:04;16.80;;;11.15;;
72427;SDS011;60419;48.880;18.036;2023-06-22T05:22:51;11.50;;;7.88;;
72427;SDS011;60419;48.880;18.036;2023-06-22T05:25:36;13.00;;;8.77;;
72427;SDS011;60419;48.880;18.036;2023-06-22T05:28:22;16.02;;;10.18;;
72427;SDS011;60419;48.880;18.036;2023-06-22T05:31:09;15.32;;;9.55;;
72427;SDS011;60419;48.880;18.036;2023-06-22T05:33:55;14.75;;;9.70;;
72427;SDS011;60419;48.880;18.036;2023-06-22T05:36:41;18.23;;;11.23;;
72427;SDS011;60419;48.880;18.036;2023-06-22T05:39:29;15.43;;;9.90;;
72427;SDS011;60419;48.880;18.036;2023-06-22T05:42:14;23.50;;;11.05;;
72427;SDS011;60419;48.880;18.036;2023-06-22T05:44:59;21.85;;;11.02;;
72427;SDS011;60419;48.880;18.036;2023-06-22T05:47:45;17.58;;;11.90;;
72427;SDS011;60419;48.880;18.036;2023-06-22T05:50:30;23.88;;;13.32;;
72427;SDS011;60419;48.880;18.036;2023-06-22T05:53:15;19.02;;;12.70;;
72427;SDS011;60419;48.880;18.036;2023-06-22T05:56:01;23.15;;;13.80;;
72427;SDS011;60419;48.880;18.036;2023-06-22T05:58:46;22.27;;;12.63;;
72427;SDS011;60419;48.880;18.036;2023-06-22T06:01:32;16.35;;;9.10;;
72427;SDS011;60419;48.880;18.036;2023-06-22T06:04:21;18.27;;;10.90;;
72427;SDS011;60419;48.880;18.036;2023-06-22T06:07:06;18.60;;;11.38;;
72427;SDS011;60419;48.880;18.036;2023-06-22T06:09:52;18.10;;;11.02;;
72427;SDS011;60419;48.880;18.036;2023-06-22T06:12:37;19.23;;;12.48;;
72427;SDS011;60419;48.880;18.036;2023-06-22T06:15:23;15.15;;;8.93;;
72427;SDS011;60419;48.880;18.036;2023-06-22T06:18:08;13.93;;;7.70;;
72427;SDS011;60419;48.880;18.036;2023-06-22T06:20:53;23.05;;;13.45;;
72427;SDS011;60419;48.880;18.036;2023-06-22T06:23:39;29.40;;;16.30;;
72427;SDS011;60419;48.880;18.036;2023-06-22T06:26:24;16.58;;;10.48;;
72427;SDS011;60419;48.880;18.036;2023-06-22T06:29:14;20.23;;;13.20;;
72427;SDS011;60419;48.880;18.036;2023-06-22T06:32:01;19.55;;;12.95;;
72427;SDS011;60419;48.880;18.036;2023-06-22T06:34:46;20.00;;;11.60;;
72427;SDS011;60419;48.880;18.036;2023-06-22T06:37:36;18.75;;;12.30;;
72427;SDS011;60419;48.880;18.036;2023-06-22T06:40:23;19.17;;;12.95;;
72427;SDS011;60419;48.880;18.036;2023-06-22T06:43:08;21.60;;;13.90;;
72427;SDS011;60419;48.880;18.036;2023-06-22T06:45:53;22.75;;;13.57;;
72427;SDS011;60419;48.880;18.036;2023-06-22T06:48:39;18.30;;;13.30;;
72427;SDS011;60419;48.880;18.036;2023-06-22T06:51:24;16.58;;;11.07;;
72427;SDS011;60419;48.880;18.036;2023-06-22T06:54:10;15.65;;;10.63;;
72427;SDS011;60419;48.880;18.036;2023-06-22T06:56:55;19.77;;;11.18;;
72427;SDS011;60419;48.880;18.036;2023-06-22T06:59:41;19.75;;;12.43;;
72427;SDS011;60419;48.880;18.036;2023-06-22T07:02:26;11.05;;;7.40;;
72427;SDS011;60419;48.880;18.036;2023-06-22T07:05:14;18.92;;;12.30;;
72427;SDS011;60419;48.880;18.036;2023-06-22T07:08:00;18.50;;;13.02;;
72427;SDS011;60419;48.880;18.036;2023-06-22T07:10:45;14.15;;;9.38;;
72427;SDS011;60419;48.880;18.036;2023-06-22T07:13:31;21.70;;;13.82;;
72427;SDS011;60419;48.880;18.036;2023-06-22T07:16:16;21.35;;;14.32;;
72427;SDS011;60419;48.880;18.036;2023-06-22T07:19:02;21.45;;;13.20;;
72427;SDS011;60419;48.880;18.036;2023-06-22T07:21:47;22.17;;;14.25;;
72427;SDS011;60419;48.880;18.036;2023-06-22T07:24:33;20.95;;;13.45;;
72427;SDS011;60419;48.880;18.036;2023-06-22T07:27:18;18.95;;;11.13;;
72427;SDS011;60419;48.880;18.036;2023-06-22T07:30:04;20.20;;;12.23;;
72427;SDS011;60419;48.880;18.036;2023-06-22T07:32:50;16.15;;;11.68;;
72427;SDS011;60419;48.880;18.036;2023-06-22T07:35:36;17.42;;;11.18;;
72427;SDS011;60419;48.880;18.036;2023-06-22T07:38:21;18.27;;;12.10;;
72427;SDS011;60419;48.880;18.036;2023-06-22T07:41:06;20.42;;;11.68;;
72427;SDS011;60419;48.880;18.036;2023-06-22T07:43:52;18.75;;;11.18;;
72427;SDS011;60419;48.880;18.036;2023-06-22T07:46:37;18.77;;;12.20;;
72427;SDS011;60419;48.880;18.036;2023-06-22T07:49:23;16.88;;;10.10;;
72427;SDS011;60419;48.880;18.036;2023-06-22T07:52:08;13.85;;;9.23;;
72427;SDS011;60419;48.880;18.036;2023-06-22T07:54:54;13.98;;;8.60;;
72427;SDS011;60419;48.880;18.036;2023-06-22T07:57:39;14.80;;;9.68;;
72427;SDS011;60419;48.880;18.036;2023-06-22T08:00:27;11.30;;;6.40;;
72427;SDS011;60419;48.880;18.036;2023-06-22T08:03:12;13.32;;;8.10;;
72427;SDS011;60419;48.880;18.036;2023-06-22T08:05:58;12.52;;;7.28;;
72427;SDS011;60419;48.880;18.036;2023-06-22T08:08:44;13.20;;;6.63;;
72427;SDS011;60419;48.880;18.036;2023-06-22T08:11:32;11.65;;;6.68;;
72427;SDS011;60419;48.880;18.036;2023-06-22T08:14:18;14.35;;;7.38;;
72427;SDS011;60419;48.880;18.036;2023-06-22T08:17:04;11.55;;;5.65;;
72427;SDS011;60419;48.880;18.036;2023-06-22T08:19:50;11.48;;;6.57;;
72427;SDS011;60419;48.880;18.036;2023-06-22T08:22:35;11.05;;;6.63;;
72427;SDS011;60419;48.880;18.036;2023-06-22T08:25:24;10.10;;;6.28;;
72427;SDS011;60419;48.880;18.036;2023-06-22T08:28:09;11.85;;;6.22;;
72427;SDS011;60419;48.880;18.036;2023-06-22T08:30:55;10.18;;;7.07;;
72427;SDS011;60419;48.880;18.036;2023-06-22T08:33:40;10.50;;;6.40;;
72427;SDS011;60419;48.880;18.036;2023-06-22T08:36:26;12.18;;;7.03;;
72427;SDS011;60419;48.880;18.036;2023-06-22T08:39:14;9.30;;;5.00;;
72427;SDS011;60419;48.880;18.036;2023-06-22T08:41:59;9.60;;;5.35;;
72427;SDS011;60419;48.880;18.036;2023-06-22T08:44:44;7.88;;;5.00;;
72427;SDS011;60419;48.880;18.036;2023-06-22T08:47:30;7.93;;;4.32;;
72427;SDS011;60419;48.880;18.036;2023-06-22T08:50:15;8.15;;;4.90;;
72427;SDS011;60419;48.880;18.036;2023-06-22T08:53:00;9.40;;;4.93;;
72427;SDS011;60419;48.880;18.036;2023-06-22T08:55:46;8.13;;;4.60;;
72427;SDS011;60419;48.880;18.036;2023-06-22T08:58:31;9.07;;;4.13;;
72427;SDS011;60419;48.880;18.036;2023-06-22T09:01:17;6.72;;;3.83;;
72427;SDS011;60419;48.880;18.036;2023-06-22T09:04:02;8.85;;;4.22;;
72427;SDS011;60419;48.880;18.036;2023-06-22T09:06:48;7.32;;;4.00;;
72427;SDS011;60419;48.880;18.036;2023-06-22T09:09:35;8.65;;;3.60;;
72427;SDS011;60419;48.880;18.036;2023-06-22T09:12:20;6.25;;;3.60;;
72427;SDS011;60419;48.880;18.036;2023-06-22T09:15:10;6.70;;;3.80;;
72427;SDS011;60419;48.880;18.036;2023-06-22T09:17:56;6.40;;;3.80;;
72427;SDS011;60419;48.880;18.036;2023-06-22T09:20:42;10.15;;;4.20;;
72427;SDS011;60419;48.880;18.036;2023-06-22T09:23:27;9.20;;;4.03;;
72427;SDS011;60419;48.880;18.036;2023-06-22T09:26:13;8.43;;;3.90;;
72427;SDS011;60419;48.880;18.036;2023-06-22T09:28:59;7.28;;;4.05;;
72427;SDS011;60419;48.880;18.036;2023-06-22T09:31:44;6.47;;;3.88;;
72427;SDS011;60419;48.880;18.036;2023-06-22T09:34:30;5.50;;;3.47;;
72427;SDS011;60419;48.880;18.036;2023-06-22T09:37:16;9.48;;;4.00;;
72427;SDS011;60419;48.880;18.036;2023-06-22T09:40:01;6.15;;;4.00;;
72427;SDS011;60419;48.880;18.036;2023-06-22T09:42:53;7.15;;;4.00;;
72427;SDS011;60419;48.880;18.036;2023-06-22T09:45:38;9.85;;;4.60;;
72427;SDS011;60419;48.880;18.036;2023-06-22T09:48:24;8.32;;;5.00;;
72427;SDS011;60419;48.880;18.036;2023-06-22T09:51:09;6.95;;;4.25;;
72427;SDS011;60419;48.880;18.036;2023-06-22T09:53:54;8.70;;;4.88;;
72427;SDS011;60419;48.880;18.036;2023-06-22T09:56:40;7.20;;;4.53;;
72427;SDS011;60419;48.880;18.036;2023-06-22T09:59:25;8.52;;;4.55;;
72427;SDS011;60419;48.880;18.036;2023-06-22T10:02:11;8.82;;;4.80;;
72427;SDS011;60419;48.880;18.036;2023-06-22T10:04:57;8.15;;;5.05;;
72427;SDS011;60419;48.880;18.036;2023-06-22T10:07:42;9.63;;;5.28;;
72427;SDS011;60419;48.880;18.036;2023-06-22T10:10:28;7.72;;;4.60;;
72427;SDS011;60419;48.880;18.036;2023-06-22T10:13:14;9.32;;;5.18;;
72427;SDS011;60419;48.880;18.036;2023-06-22T10:15:59;9.20;;;4.93;;
72427;SDS011;60419;48.880;18.036;2023-06-22T10:18:45;8.52;;;5.10;;
72427;SDS011;60419;48.880;18.036;2023-06-22T10:21:30;8.10;;;5.32;;
72427;SDS011;60419;48.880;18.036;2023-06-22T10:24:16;8.25;;;4.45;;
72427;SDS011;60419;48.880;18.036;2023-06-22T10:27:02;8.00;;;5.05;;
72427;SDS011;60419;48.880;18.036;2023-06-22T10:29:47;10.48;;;5.22;;
72427;SDS011;60419;48.880;18.036;2023-06-22T10:32:32;11.68;;;5.28;;
72427;SDS011;60419;48.880;18.036;2023-06-22T10:35:18;12.05;;;5.00;;
72427;SDS011;60419;48.880;18.036;2023-06-22T10:38:04;8.63;;;5.90;;
72427;SDS011;60419;48.880;18.036;2023-06-22T10:40:49;6.88;;;5.00;;
72427;SDS011;60419;48.880;18.036;2023-06-22T10:43:35;8.95;;;5.18;;
72427;SDS011;60419;48.880;18.036;2023-06-22T10:46:20;7.47;;;5.00;;
72427;SDS011;60419;48.880;18.036;2023-06-22T10:49:05;7.90;;;5.03;;
72427;SDS011;60419;48.880;18.036;2023-06-22T10:51:51;8.13;;;5.22;;
72427;SDS011;60419;48.880;18.036;2023-06-22T10:54:37;7.97;;;5.18;;
72427;SDS011;60419;48.880;18.036;2023-06-22T10:57:22;8.85;;;5.38;;
72427;SDS011;60419;48.880;18.036;2023-06-22T11:00:08;8.38;;;5.45;;
72427;SDS011;60419;48.880;18.036;2023-06-22T11:02:54;8.57;;;5.50;;
72427;SDS011;60419;48.880;18.036;2023-06-22T11:05:39;13.27;;;5.50;;
72427;SDS011;60419;48.880;18.036;2023-06-22T11:08:25;6.88;;;5.00;;
72427;SDS011;60419;48.880;18.036;2023-06-22T11:11:10;8.18;;;5.57;;
72427;SDS011;60419;48.880;18.036;2023-06-22T11:13:55;8.95;;;6.03;;
72427;SDS011;60419;48.880;18.036;2023-06-22T11:16:41;9.52;;;5.43;;
72427;SDS011;60419;48.880;18.036;2023-06-22T11:19:26;7.78;;;4.93;;
72427;SDS011;60419;48.880;18.036;2023-06-22T11:22:12;7.55;;;5.57;;
72427;SDS011;60419;48.880;18.036;2023-06-22T11:24:58;8.90;;;5.88;;
72427;SDS011;60419;48.880;18.036;2023-06-22T11:27:43;8.90;;;5.60;;
72427;SDS011;60419;48.880;18.036;2023-06-22T11:30:28;8.98;;;6.00;;
72427;SDS011;60419;48.880;18.036;2023-06-22T11:33:14;10.82;;;5.82;;
72427;SDS011;60419;48.880;18.036;2023-06-22T11:36:00;10.05;;;5.93;;
72427;SDS011;60419;48.880;18.036;2023-06-22T11:38:45;7.70;;;5.50;;
72427;SDS011;60419;48.880;18.036;2023-06-22T11:41:30;8.38;;;5.72;;
72427;SDS011;60419;48.880;18.036;2023-06-22T11:44:16;8.45;;;5.90;;
72427;SDS011;60419;48.880;18.036;2023-06-22T11:47:01;8.90;;;5.43;;
72427;SDS011;60419;48.880;18.036;2023-06-22T11:49:48;8.20;;;5.32;;
72427;SDS011;60419;48.880;18.036;2023-06-22T11:52:34;9.50;;;5.68;;
72427;SDS011;60419;48.880;18.036;2023-06-22T11:55:21;10.75;;;5.80;;
72427;SDS011;60419;48.880;18.036;2023-06-22T11:58:06;7.65;;;5.63;;
72427;SDS011;60419;48.880;18.036;2023-06-22T12:00:51;8.73;;;5.68;;
72427;SDS011;60419;48.880;18.036;2023-06-22T12:03:37;9.60;;;5.82;;
72427;SDS011;60419;48.880;18.036;2023-06-22T12:06:22;7.63;;;5.95;;
72427;SDS011;60419;48.880;18.036;2023-06-22T12:09:08;9.88;;;6.07;;
72427;SDS011;60419;48.880;18.036;2023-06-22T12:11:53;9.13;;;5.28;;
72427;SDS011;60419;48.880;18.036;2023-06-22T12:14:38;7.80;;;5.47;;
72427;SDS011;60419;48.880;18.036;2023-06-22T12:17:24;9.93;;;5.72;;
72427;SDS011;60419;48.880;18.036;2023-06-22T12:20:09;11.50;;;5.97;;
72427;SDS011;60419;48.880;18.036;2023-06-22T12:22:55;8.57;;;6.10;;
72427;SDS011;60419;48.880;18.036;2023-06-22T12:25:44;8.20;;;5.95;;
72427;SDS011;60419;48.880;18.036;2023-06-22T12:28:30;9.82;;;6.13;;
72427;SDS011;60419;48.880;18.036;2023-06-22T12:31:17;6.65;;;5.40;;
72427;SDS011;60419;48.880;18.036;2023-06-22T12:34:02;10.38;;;6.35;;
72427;SDS011;60419;48.880;18.036;2023-06-22T12:36:48;8.15;;;5.93;;
72427;SDS011;60419;48.880;18.036;2023-06-22T12:39:33;8.32;;;5.60;;
72427;SDS011;60419;48.880;18.036;2023-06-22T12:42:19;8.48;;;5.50;;
72427;SDS011;60419;48.880;18.036;2023-06-22T12:45:06;9.25;;;5.35;;
72427;SDS011;60419;48.880;18.036;2023-06-22T12:47:51;8.70;;;5.50;;
72427;SDS011;60419;48.880;18.036;2023-06-22T12:50:37;9.18;;;6.00;;
72427;SDS011;60419;48.880;18.036;2023-06-22T12:53:22;7.55;;;5.28;;
72427;SDS011;60419;48.880;18.036;2023-06-22T12:56:08;6.80;;;4.97;;
72427;SDS011;60419;48.880;18.036;2023-06-22T12:58:54;7.13;;;4.85;;
72427;SDS011;60419;48.880;18.036;2023-06-22T13:01:39;7.00;;;4.80;;
72427;SDS011;60419;48.880;18.036;2023-06-22T13:04:24;8.00;;;5.22;;
72427;SDS011;60419;48.880;18.036;2023-06-22T13:07:10;7.43;;;4.55;;
72427;SDS011;60419;48.880;18.036;2023-06-22T13:09:55;8.25;;;4.80;;
72427;SDS011;60419;48.880;18.036;2023-06-22T13:12:41;8.60;;;4.90;;
72427;SDS011;60419;48.880;18.036;2023-06-22T13:15:27;6.57;;;4.78;;
72427;SDS011;60419;48.880;18.036;2023-06-22T13:18:13;7.18;;;4.72;;
72427;SDS011;60419;48.880;18.036;2023-06-22T13:20:59;7.53;;;4.70;;
72427;SDS011;60419;48.880;18.036;2023-06-22T13:23:45;8.00;;;4.75;;
72427;SDS011;60419;48.880;18.036;2023-06-22T13:26:30;8.77;;;4.85;;
72427;SDS011;60419;48.880;18.036;2023-06-22T13:29:15;9.18;;;4.80;;
72427;SDS011;60419;48.880;18.036;2023-06-22T13:32:01;6.05;;;4.38;;
72427;SDS011;60419;48.880;18.036;2023-06-22T13:34:46;7.43;;;4.40;;
72427;SDS011;60419;48.880;18.036;2023-06-22T13:37:31;8.38;;;5.20;;
72427;SDS011;60419;48.880;18.036;2023-06-22T13:40:17;9.48;;;5.15;;
72427;SDS011;60419;48.880;18.036;2023-06-22T13:43:02;5.95;;;4.18;;
72427;SDS011;60419;48.880;18.036;2023-06-22T13:45:47;7.50;;;4.85;;
72427;SDS011;60419;48.880;18.036;2023-06-22T13:48:33;7.43;;;3.92;;
72427;SDS011;60419;48.880;18.036;2023-06-22T13:51:18;6.55;;;4.32;;
72427;SDS011;60419;48.880;18.036;2023-06-22T13:54:04;4.70;;;3.50;;
72427;SDS011;60419;48.880;18.036;2023-06-22T13:56:49;5.55;;;3.80;;
72427;SDS011;60419;48.880;18.036;2023-06-22T13:59:34;7.38;;;4.20;;
72427;SDS011;60419;48.880;18.036;2023-06-22T14:02:20;6.38;;;3.83;;
72427;SDS011;60419;48.880;18.036;2023-06-22T14:05:05;6.07;;;3.60;;
72427;SDS011;60419;48.880;18.036;2023-06-22T14:07:51;5.15;;;3.65;;
72427;SDS011;60419;48.880;18.036;2023-06-22T14:10:37;6.15;;;3.47;;
72427;SDS011;60419;48.880;18.036;2023-06-22T14:13:22;6.68;;;3.78;;
72427;SDS011;60419;48.880;18.036;2023-06-22T14:16:07;5.78;;;3.72;;
72427;SDS011;60419;48.880;18.036;2023-06-22T14:18:53;4.97;;;3.88;;
72427;SDS011;60419;48.880;18.036;2023-06-22T14:21:39;5.45;;;3.78;;
72427;SDS011;60419;48.880;18.036;2023-06-22T14:24:24;6.40;;;3.70;;
72427;SDS011;60419;48.880;18.036;2023-06-22T14:27:10;5.07;;;3.53;;
72427;SDS011;60419;48.880;18.036;2023-06-22T14:29:55;5.30;;;3.28;;
72427;SDS011;60419;48.880;18.036;2023-06-22T14:32:43;6.53;;;3.60;;
72427;SDS011;60419;48.880;18.036;2023-06-22T14:35:28;6.72;;;3.80;;
72427;SDS011;60419;48.880;18.036;2023-06-22T14:38:14;5.03;;;3.50;;
72427;SDS011;60419;48.880;18.036;2023-06-22T14:40:59;6.00;;;3.85;;
72427;SDS011;60419;48.880;18.036;2023-06-22T14:43:45;7.53;;;4.30;;
72427;SDS011;60419;48.880;18.036;2023-06-22T14:46:40;8.23;;;5.30;;
72427;SDS011;60419;48.880;18.036;2023-06-22T14:49:25;7.18;;;5.82;;
72427;SDS011;60419;48.880;18.036;2023-06-22T14:52:11;9.20;;;5.10;;
72427;SDS011;60419;48.880;18.036;2023-06-22T14:54:56;8.05;;;5.30;;
72427;SDS011;60419;48.880;18.036;2023-06-22T14:57:42;6.47;;;4.53;;
72427;SDS011;60419;48.880;18.036;2023-06-22T15:00:27;9.43;;;5.45;;
72427;SDS011;60419;48.880;18.036;2023-06-22T15:03:13;9.00;;;5.35;;
72427;SDS011;60419;48.880;18.036;2023-06-22T15:06:02;8.15;;;5.10;;
72427;SDS011;60419;48.880;18.036;2023-06-22T15:08:49;8.43;;;5.40;;
72427;SDS011;60419;48.880;18.036;2023-06-22T15:11:34;8.13;;;5.43;;
72427;SDS011;60419;48.880;18.036;2023-06-22T15:14:20;9.82;;;5.60;;
72427;SDS011;60419;48.880;18.036;2023-06-22T15:17:05;8.05;;;5.80;;
72427;SDS011;60419;48.880;18.036;2023-06-22T15:19:53;6.43;;;4.93;;
72427;SDS011;60419;48.880;18.036;2023-06-22T15:22:40;8.07;;;5.47;;
72427;SDS011;60419;48.880;18.036;2023-06-22T15:25:25;7.43;;;5.30;;
72427;SDS011;60419;48.880;18.036;2023-06-22T15:28:11;8.32;;;5.60;;
72427;SDS011;60419;48.880;18.036;2023-06-22T15:30:57;10.48;;;5.88;;
72427;SDS011;60419;48.880;18.036;2023-06-22T15:33:42;7.65;;;5.47;;
72427;SDS011;60419;48.880;18.036;2023-06-22T15:36:28;10.13;;;5.60;;
72427;SDS011;60419;48.880;18.036;2023-06-22T15:39:13;10.32;;;5.47;;
72427;SDS011;60419;48.880;18.036;2023-06-22T15:41:58;7.60;;;5.13;;
72427;SDS011;60419;48.880;18.036;2023-06-22T15:44:44;7.57;;;5.03;;
72427;SDS011;60419;48.880;18.036;2023-06-22T15:47:29;6.97;;;4.45;;
72427;SDS011;60419;48.880;18.036;2023-06-22T15:50:15;6.97;;;4.25;;
72427;SDS011;60419;48.880;18.036;2023-06-22T15:53:00;6.55;;;4.35;;
72427;SDS011;60419;48.880;18.036;2023-06-22T15:55:45;7.18;;;4.57;;
72427;SDS011;60419;48.880;18.036;2023-06-22T15:58:32;6.32;;;4.20;;
72427;SDS011;60419;48.880;18.036;2023-06-22T16:01:17;8.07;;;4.72;;
72427;SDS011;60419;48.880;18.036;2023-06-22T16:04:03;8.05;;;4.32;;
72427;SDS011;60419;48.880;18.036;2023-06-22T16:06:48;6.80;;;4.25;;
72427;SDS011;60419;48.880;18.036;2023-06-22T16:09:34;7.30;;;4.18;;
72427;SDS011;60419;48.880;18.036;2023-06-22T16:12:19;7.40;;;4.38;;
72427;SDS011;60419;48.880;18.036;2023-06-22T16:15:04;8.50;;;4.50;;
72427;SDS011;60419;48.880;18.036;2023-06-22T16:17:50;5.82;;;3.72;;
72427;SDS011;60419;48.880;18.036;2023-06-22T16:20:35;7.32;;;4.60;;
72427;SDS011;60419;48.880;18.036;2023-06-22T16:23:21;7.57;;;4.45;;